createdAt,value
2018-12-31T00:04:12.828Z,9.83
2018-12-31T00:06:38.884Z,9.30
2018-12-31T00:09:04.884Z,9.90
2018-12-31T00:11:30.887Z,9.47
2018-12-31T00:13:56.990Z,8.83
2018-12-31T00:16:23.068Z,9.00
2018-12-31T00:18:49.121Z,9.20
2018-12-31T00:21:15.131Z,9.77
2018-12-31T00:23:41.170Z,9.50
2018-12-31T00:26:07.181Z,9.00
2018-12-31T00:28:33.207Z,9.60
2018-12-31T00:30:59.209Z,10.93
2018-12-31T00:33:25.250Z,10.17
2018-12-31T00:35:51.267Z,10.33
2018-12-31T00:38:17.323Z,11.17
2018-12-31T00:40:43.394Z,12.80
2018-12-31T00:43:09.390Z,12.53
2018-12-31T00:45:35.415Z,12.10
2018-12-31T00:48:01.407Z,12.43
2018-12-31T00:50:27.443Z,12.97
2018-12-31T00:52:53.443Z,12.60
2018-12-31T00:55:19.505Z,12.77
2018-12-31T00:57:45.506Z,14.07
2018-12-31T01:02:57.103Z,14.37
2018-12-31T01:05:23.116Z,15.60
2018-12-31T01:07:49.153Z,15.30
2018-12-31T01:10:15.173Z,14.30
2018-12-31T01:12:41.367Z,15.20
2018-12-31T01:15:09.143Z,14.87
2018-12-31T01:17:35.217Z,15.23
2018-12-31T01:20:01.290Z,15.60
2018-12-31T01:22:27.250Z,14.33
2018-12-31T01:24:53.332Z,14.97
2018-12-31T01:27:19.348Z,14.13
2018-12-31T01:29:45.341Z,15.63
2018-12-31T01:32:11.364Z,15.33
2018-12-31T01:34:37.410Z,15.00
2018-12-31T01:37:03.451Z,15.57
2018-12-31T01:39:29.478Z,15.87
2018-12-31T01:41:55.512Z,16.33
2018-12-31T01:44:21.517Z,16.90
2018-12-31T01:46:47.557Z,16.47
2018-12-31T01:49:13.564Z,16.60
2018-12-31T01:51:39.594Z,16.37
2018-12-31T01:54:05.590Z,16.50
2018-12-31T01:56:31.644Z,15.87
2018-12-31T01:58:57.678Z,15.77
2018-12-31T02:01:23.690Z,16.03
2018-12-31T02:03:49.730Z,16.53
2018-12-31T02:06:15.720Z,16.43
2018-12-31T02:08:41.753Z,16.57
2018-12-31T02:11:07.752Z,17.13
2018-12-31T02:13:33.781Z,17.77
2018-12-31T02:15:59.781Z,18.40
2018-12-31T02:18:25.819Z,18.50
2018-12-31T02:20:51.838Z,18.43
2018-12-31T02:23:17.868Z,18.17
2018-12-31T02:25:43.868Z,17.47
2018-12-31T02:28:09.900Z,18.07
2018-12-31T02:30:35.942Z,18.60
2018-12-31T02:33:01.952Z,17.97
2018-12-31T02:35:47.940Z,18.87
2018-12-31T02:38:13.969Z,18.87
2018-12-31T02:40:39.997Z,18.87
2018-12-31T02:43:06.036Z,18.27
2018-12-31T02:45:32.066Z,17.93
2018-12-31T02:47:58.103Z,17.40
2018-12-31T02:50:24.108Z,17.63
2018-12-31T02:53:02.187Z,17.67
2018-12-31T02:55:18.078Z,16.83
2018-12-31T02:57:44.127Z,18.47
2018-12-31T03:00:10.133Z,16.87
2018-12-31T03:02:36.185Z,17.23
2018-12-31T03:05:43.845Z,17.53
2018-12-31T03:08:09.876Z,17.07
2018-12-31T03:10:35.963Z,18.10
2018-12-31T03:13:01.974Z,16.80
2018-12-31T03:15:27.995Z,17.57
2018-12-31T03:17:54.027Z,17.20
2018-12-31T03:20:20.025Z,17.70
2018-12-31T03:22:46.070Z,16.93
2018-12-31T03:25:12.080Z,17.13
2018-12-31T03:27:38.102Z,17.97
2018-12-31T03:33:17.668Z,17.67
2018-12-31T03:35:43.660Z,18.53
2018-12-31T03:38:09.700Z,17.90
2018-12-31T03:40:35.689Z,18.33
2018-12-31T03:43:01.702Z,18.53
2018-12-31T03:45:27.729Z,19.07
2018-12-31T03:47:53.735Z,19.40
2018-12-31T03:50:19.761Z,18.87
2018-12-31T03:52:45.757Z,19.73
2018-12-31T03:55:11.777Z,20.03
2018-12-31T03:57:37.811Z,18.17
2018-12-31T04:00:45.482Z,18.80
2018-12-31T04:03:11.526Z,19.03
2018-12-31T04:05:37.569Z,18.80
2018-12-31T04:08:03.572Z,19.03
2018-12-31T04:10:29.620Z,19.03
2018-12-31T04:12:55.610Z,18.83
2018-12-31T04:15:21.672Z,19.20
2018-12-31T04:17:47.661Z,20.80
2018-12-31T04:20:13.649Z,20.63
2018-12-31T04:22:39.688Z,21.37
2018-12-31T04:25:05.689Z,23.57
2018-12-31T04:27:31.737Z,21.87
2018-12-31T04:29:57.747Z,23.07
2018-12-31T04:32:23.779Z,23.87
2018-12-31T04:34:49.761Z,23.23
2018-12-31T04:37:15.793Z,28.03
2018-12-31T04:42:27.404Z,27.37
2018-12-31T04:44:53.402Z,27.47
2018-12-31T04:47:19.447Z,28.33
2018-12-31T04:49:45.487Z,28.63
2018-12-31T04:52:11.483Z,28.60
2018-12-31T04:54:37.525Z,30.57
2018-12-31T04:57:03.519Z,28.20
2018-12-31T04:59:29.543Z,27.47
2018-12-31T05:01:55.547Z,27.63
2018-12-31T05:04:22.120Z,28.60
2018-12-31T05:06:49.531Z,28.83
2018-12-31T05:09:15.556Z,27.27
2018-12-31T05:11:41.601Z,27.70
2018-12-31T05:14:07.603Z,27.90
2018-12-31T05:16:33.642Z,29.87
2018-12-31T05:18:59.631Z,28.47
2018-12-31T05:21:25.653Z,28.57
2018-12-31T05:23:51.653Z,29.70
2018-12-31T05:26:17.691Z,29.30
2018-12-31T05:28:43.723Z,29.30
2018-12-31T05:31:09.735Z,29.13
2018-12-31T05:33:35.759Z,28.67
2018-12-31T05:36:01.765Z,28.27
2018-12-31T05:38:27.820Z,29.90
2018-12-31T05:40:53.815Z,29.70
2018-12-31T05:43:19.853Z,29.97
2018-12-31T05:45:45.886Z,32.73
2018-12-31T05:48:11.908Z,32.00
2018-12-31T05:50:37.938Z,31.83
2018-12-31T05:53:03.950Z,32.27
2018-12-31T05:55:29.974Z,31.40
2018-12-31T05:57:55.965Z,31.60
2018-12-31T06:00:21.992Z,32.33
2018-12-31T06:02:47.996Z,32.97
2018-12-31T06:05:14.031Z,34.13
2018-12-31T06:07:40.094Z,31.50
2018-12-31T06:10:06.104Z,32.13
2018-12-31T06:12:32.143Z,30.73
2018-12-31T06:14:58.278Z,31.70
2018-12-31T06:17:24.317Z,33.17
2018-12-31T06:19:50.305Z,32.77
2018-12-31T06:22:16.318Z,33.23
2018-12-31T06:24:42.287Z,33.10
2018-12-31T06:27:08.323Z,32.07
2018-12-31T06:29:34.363Z,33.00
2018-12-31T06:32:00.361Z,31.33
2018-12-31T06:34:26.397Z,30.80
2018-12-31T06:36:52.372Z,32.00
2018-12-31T06:39:18.393Z,32.57
2018-12-31T06:41:44.401Z,33.57
2018-12-31T06:44:10.474Z,31.73
2018-12-31T06:46:36.523Z,31.77
2018-12-31T06:49:02.556Z,28.93
2018-12-31T06:51:28.601Z,32.73
2018-12-31T06:53:54.608Z,29.50
2018-12-31T06:56:20.603Z,30.20
2018-12-31T06:58:46.623Z,32.47
2018-12-31T07:01:12.673Z,32.07
2018-12-31T07:03:38.659Z,31.17
2018-12-31T07:06:04.690Z,34.40
2018-12-31T07:08:30.731Z,32.53
2018-12-31T07:10:56.725Z,32.17
2018-12-31T07:13:22.747Z,31.63
2018-12-31T07:15:48.788Z,33.93
2018-12-31T07:18:14.840Z,32.57
2018-12-31T07:20:40.834Z,32.33
2018-12-31T07:23:06.868Z,32.20
2018-12-31T07:25:32.865Z,31.77
2018-12-31T07:27:58.898Z,34.17
2018-12-31T07:33:10.552Z,30.70
2018-12-31T07:35:36.548Z,31.30
2018-12-31T07:38:02.540Z,31.73
2018-12-31T07:40:28.623Z,31.67
2018-12-31T07:42:54.636Z,31.67
2018-12-31T07:45:20.676Z,29.40
2018-12-31T07:47:46.688Z,28.73
2018-12-31T07:50:12.728Z,29.03
2018-12-31T07:52:38.736Z,27.10
2018-12-31T07:55:04.766Z,27.00
2018-12-31T07:57:30.762Z,25.87
2018-12-31T07:59:56.756Z,26.27
2018-12-31T08:02:22.766Z,26.77
2018-12-31T08:04:48.775Z,24.13
2018-12-31T08:07:14.820Z,26.10
2018-12-31T08:09:40.849Z,24.63
2018-12-31T08:12:06.883Z,24.63
2018-12-31T08:14:32.921Z,24.07
2018-12-31T08:16:58.956Z,23.80
2018-12-31T08:19:24.948Z,23.83
2018-12-31T08:21:50.977Z,23.77
2018-12-31T08:24:16.997Z,23.67
2018-12-31T08:26:43.043Z,22.20
2018-12-31T08:29:09.047Z,22.33
2018-12-31T08:31:35.182Z,23.43
2018-12-31T08:34:01.198Z,23.77
2018-12-31T08:36:27.188Z,23.63
2018-12-31T08:38:53.218Z,24.07
2018-12-31T08:41:19.216Z,26.33
2018-12-31T08:43:45.269Z,23.37
2018-12-31T08:46:11.364Z,24.00
2018-12-31T08:48:37.375Z,22.77
2018-12-31T08:51:03.542Z,21.87
2018-12-31T08:53:29.630Z,23.03
2018-12-31T08:55:55.630Z,24.27
2018-12-31T08:58:21.652Z,22.50
2018-12-31T09:00:47.678Z,22.90
2018-12-31T09:03:13.681Z,23.10
2018-12-31T09:05:39.718Z,21.73
2018-12-31T09:08:05.710Z,21.60
2018-12-31T09:10:31.743Z,20.13
2018-12-31T09:12:57.779Z,19.70
2018-12-31T09:15:23.867Z,18.00
2018-12-31T09:17:49.856Z,19.77
2018-12-31T09:20:15.902Z,17.40
2018-12-31T09:22:41.892Z,20.13
2018-12-31T09:25:07.888Z,17.30
2018-12-31T09:27:33.907Z,18.70
2018-12-31T09:29:59.885Z,17.17
2018-12-31T09:32:25.918Z,18.17
2018-12-31T09:34:51.982Z,19.80
2018-12-31T09:37:17.971Z,20.30
2018-12-31T09:39:43.995Z,19.97
2018-12-31T09:42:10.033Z,19.73
2018-12-31T09:44:36.062Z,18.20
2018-12-31T09:47:02.061Z,16.67
2018-12-31T09:49:28.091Z,16.93
2018-12-31T09:51:54.119Z,17.83
2018-12-31T09:54:20.163Z,16.27
2018-12-31T09:56:46.193Z,16.47
2018-12-31T09:59:12.213Z,16.00
2018-12-31T10:01:38.247Z,14.43
2018-12-31T10:04:04.267Z,13.63
2018-12-31T10:06:30.260Z,11.93
2018-12-31T10:08:56.282Z,11.87
2018-12-31T10:11:22.270Z,11.00
2018-12-31T10:13:48.320Z,10.67
2018-12-31T10:16:14.359Z,11.50
2018-12-31T10:18:40.354Z,11.57
2018-12-31T10:21:06.380Z,11.20
2018-12-31T10:23:32.391Z,11.07
2018-12-31T10:26:18.377Z,11.77
2018-12-31T10:28:44.412Z,11.97
2018-12-31T10:31:10.457Z,10.60
2018-12-31T10:33:36.460Z,10.17
2018-12-31T10:36:02.485Z,10.03
2018-12-31T10:38:28.808Z,9.83
2018-12-31T10:40:54.850Z,9.87
2018-12-31T10:43:20.848Z,10.60
2018-12-31T10:45:46.906Z,10.50
2018-12-31T10:48:12.902Z,9.93
2018-12-31T10:50:38.918Z,9.50
2018-12-31T10:53:04.931Z,9.47
2018-12-31T10:55:30.928Z,9.23
2018-12-31T10:57:56.953Z,9.80
2018-12-31T11:00:23.041Z,8.67
2018-12-31T11:02:49.172Z,8.70
2018-12-31T11:05:15.172Z,8.20
2018-12-31T11:08:01.157Z,8.17
2018-12-31T11:10:27.206Z,9.70
2018-12-31T11:12:53.228Z,10.03
2018-12-31T11:15:19.221Z,10.70
2018-12-31T11:17:45.261Z,10.70
2018-12-31T11:20:11.296Z,10.97
2018-12-31T11:22:37.341Z,10.00
2018-12-31T11:25:03.583Z,9.13
2018-12-31T11:27:29.589Z,10.00
2018-12-31T11:29:55.695Z,9.93
2018-12-31T11:32:21.716Z,9.20
2018-12-31T11:34:47.732Z,8.70
2018-12-31T11:37:13.749Z,8.10
2018-12-31T11:39:39.745Z,8.07
2018-12-31T11:42:05.827Z,8.30
2018-12-31T11:44:31.802Z,7.93
2018-12-31T11:46:57.840Z,7.63
2018-12-31T11:49:23.861Z,8.60
2018-12-31T11:51:49.855Z,8.20
2018-12-31T11:54:15.874Z,8.27
2018-12-31T11:56:41.880Z,7.47
2018-12-31T11:59:07.914Z,7.87
2018-12-31T12:04:21.354Z,7.07
2018-12-31T12:06:47.342Z,6.70
2018-12-31T12:09:13.372Z,6.60
2018-12-31T12:11:39.373Z,5.80
2018-12-31T12:14:05.410Z,6.77
2018-12-31T12:16:31.438Z,6.70
2018-12-31T12:18:57.457Z,5.93
2018-12-31T12:21:23.595Z,6.13
2018-12-31T12:23:49.592Z,5.60
2018-12-31T12:26:15.627Z,5.00
2018-12-31T12:28:41.611Z,5.20
2018-12-31T12:31:07.649Z,5.10
2018-12-31T12:33:33.657Z,5.43
2018-12-31T12:36:01.601Z,5.47
2018-12-31T12:38:27.625Z,5.40
2018-12-31T12:40:53.671Z,6.17
2018-12-31T12:43:19.704Z,6.07
2018-12-31T12:45:45.710Z,5.53
2018-12-31T12:48:11.774Z,5.90
2018-12-31T12:50:39.705Z,6.20
2018-12-31T12:53:05.756Z,7.13
2018-12-31T12:55:31.773Z,6.50
2018-12-31T12:57:57.829Z,6.60
2018-12-31T13:00:23.837Z,6.70
2018-12-31T13:02:49.872Z,8.43
2018-12-31T13:05:15.866Z,8.00
2018-12-31T13:07:41.883Z,7.03
2018-12-31T13:10:07.910Z,7.80
2018-12-31T13:12:33.904Z,7.60
2018-12-31T13:14:59.935Z,6.93
2018-12-31T13:17:25.970Z,7.30
2018-12-31T13:20:11.867Z,8.00
2018-12-31T13:22:37.905Z,7.73
2018-12-31T13:25:03.951Z,7.63
2018-12-31T13:27:29.951Z,8.70
2018-12-31T13:29:55.946Z,8.17
2018-12-31T13:32:23.896Z,8.43
2018-12-31T13:34:49.902Z,8.00
2018-12-31T13:37:15.932Z,8.50
2018-12-31T13:39:41.935Z,9.03
2018-12-31T13:42:07.987Z,9.87
2018-12-31T13:44:33.993Z,9.53
2018-12-31T13:49:32.122Z,19.27
2018-12-31T13:51:58.119Z,13.03
2018-12-31T13:54:24.155Z,12.50
2018-12-31T13:56:50.158Z,13.37
2018-12-31T13:59:16.200Z,12.73
2018-12-31T14:01:44.135Z,12.93
2018-12-31T14:04:17.044Z,13.47
2018-12-31T14:07:03.009Z,13.10
2018-12-31T14:09:29.091Z,13.53
2018-12-31T14:11:57.373Z,14.00
2018-12-31T14:14:23.371Z,15.00
2018-12-31T14:16:49.439Z,15.07
2018-12-31T14:19:15.430Z,16.50
2018-12-31T14:21:41.465Z,16.70
2018-12-31T14:24:07.495Z,17.60
2018-12-31T14:26:35.484Z,18.13
2018-12-31T14:29:01.488Z,20.87
2018-12-31T14:31:27.521Z,19.87
2018-12-31T14:33:53.545Z,21.30
2018-12-31T14:36:19.602Z,22.33
2018-12-31T14:38:45.579Z,25.43
2018-12-31T14:41:13.576Z,24.90
2018-12-31T14:43:39.584Z,25.53
2018-12-31T14:46:25.638Z,27.57
2018-12-31T14:48:51.723Z,26.23
2018-12-31T14:51:17.732Z,26.33
2018-12-31T14:53:43.764Z,24.67
2018-12-31T14:56:09.768Z,24.70
2018-12-31T14:58:35.808Z,23.87
2018-12-31T15:01:01.806Z,23.57
2018-12-31T15:03:27.793Z,23.30
2018-12-31T15:05:53.823Z,24.03
2018-12-31T15:08:21.737Z,21.77
2018-12-31T15:10:47.785Z,22.77
2018-12-31T15:13:13.823Z,24.47
2018-12-31T15:15:39.824Z,22.77
2018-12-31T15:20:43.575Z,24.83
2018-12-31T15:23:29.571Z,24.90
2018-12-31T15:25:55.619Z,27.07
2018-12-31T15:28:21.660Z,25.77
2018-12-31T15:30:47.646Z,25.37
2018-12-31T15:33:13.673Z,25.07
2018-12-31T15:35:39.749Z,24.40
2018-12-31T15:38:05.748Z,24.90
2018-12-31T15:40:31.772Z,24.90
2018-12-31T15:42:57.802Z,23.73
2018-12-31T15:45:23.826Z,24.23
2018-12-31T15:47:51.753Z,25.13
2018-12-31T15:50:17.855Z,25.50
2018-12-31T15:52:43.850Z,25.43
2018-12-31T15:55:09.848Z,25.83
2018-12-31T15:57:35.880Z,26.10
2018-12-31T16:00:01.874Z,25.47
2018-12-31T16:02:28.315Z,90.90
2018-12-31T16:04:54.324Z,27.67
2018-12-31T16:07:20.322Z,26.77
2018-12-31T16:09:46.371Z,26.53
2018-12-31T16:12:12.391Z,29.13
2018-12-31T16:14:38.384Z,26.53
2018-12-31T16:17:04.468Z,25.60
2018-12-31T16:19:30.462Z,26.67
2018-12-31T16:22:16.340Z,27.40
2018-12-31T16:27:28.008Z,27.23
2018-12-31T16:29:54.050Z,30.43
2018-12-31T16:32:20.047Z,30.10
2018-12-31T16:34:46.083Z,30.47
2018-12-31T16:37:12.073Z,32.00
2018-12-31T16:39:38.111Z,30.90
2018-12-31T16:42:06.058Z,29.07
2018-12-31T16:44:32.066Z,27.20
2018-12-31T16:46:58.100Z,27.87
2018-12-31T16:49:24.158Z,25.70
2018-12-31T16:51:50.276Z,25.83
2018-12-31T16:54:16.303Z,24.40
2018-12-31T16:56:44.279Z,23.70
2018-12-31T16:59:10.313Z,23.03
2018-12-31T17:01:36.359Z,22.67
2018-12-31T17:04:02.363Z,22.03
2018-12-31T17:06:28.410Z,19.93
2018-12-31T17:08:54.421Z,19.87
2018-12-31T17:11:20.406Z,18.10
2018-12-31T17:13:48.361Z,17.00
2018-12-31T17:16:14.356Z,17.93
2018-12-31T17:18:40.379Z,17.00
2018-12-31T17:21:06.358Z,16.10
2018-12-31T17:23:32.400Z,16.83
2018-12-31T17:25:58.387Z,17.63
2018-12-31T17:28:24.523Z,20.30
2018-12-31T17:30:50.521Z,20.40
2018-12-31T17:33:16.589Z,19.03
2018-12-31T17:35:42.610Z,20.77
2018-12-31T17:38:08.603Z,21.33
2018-12-31T17:40:54.623Z,20.83
2018-12-31T17:43:20.612Z,18.80
2018-12-31T17:45:46.670Z,20.07
2018-12-31T17:48:12.666Z,19.57
2018-12-31T17:50:38.730Z,19.17
2018-12-31T17:53:04.736Z,19.67
2018-12-31T17:55:30.761Z,20.20
2018-12-31T18:03:16.382Z,21.03
2018-12-31T18:05:42.433Z,20.43
2018-12-31T18:08:08.463Z,25.53
2018-12-31T18:10:34.457Z,22.77
2018-12-31T18:13:00.488Z,21.17
2018-12-31T18:15:26.480Z,19.90
2018-12-31T18:17:52.519Z,18.80
2018-12-31T18:20:18.525Z,18.00
2018-12-31T18:22:46.487Z,17.73
2018-12-31T18:25:12.500Z,18.53
2018-12-31T18:27:38.555Z,18.23
2018-12-31T18:33:18.540Z,17.43
2018-12-31T18:35:44.525Z,16.73
2018-12-31T18:38:10.549Z,16.60
2018-12-31T18:40:36.558Z,15.87
2018-12-31T18:43:04.526Z,15.83
2018-12-31T18:45:30.555Z,14.70
2018-12-31T18:47:56.544Z,15.30
2018-12-31T18:50:22.582Z,15.50
2018-12-31T18:52:48.562Z,15.60
2018-12-31T18:55:14.589Z,15.50
2018-12-31T18:57:40.592Z,15.83
2018-12-31T19:03:04.272Z,15.87
2018-12-31T19:05:30.333Z,15.30
2018-12-31T19:07:58.240Z,14.73
2018-12-31T19:10:24.314Z,15.30
2018-12-31T19:12:50.307Z,16.80
2018-12-31T19:15:16.325Z,17.40
2018-12-31T19:17:42.385Z,16.70
2018-12-31T19:20:08.363Z,17.00
2018-12-31T19:22:34.420Z,17.23
2018-12-31T19:25:00.409Z,16.87
2018-12-31T19:27:26.441Z,17.17
2018-12-31T19:29:52.441Z,17.50
2018-12-31T19:32:18.479Z,17.27
2018-12-31T19:34:44.470Z,18.07
2018-12-31T19:37:10.504Z,18.30
2018-12-31T19:39:36.503Z,18.40
2018-12-31T19:42:02.529Z,19.90
2018-12-31T19:44:28.529Z,19.23
2018-12-31T19:46:54.558Z,18.70
2018-12-31T19:49:20.581Z,18.90
2018-12-31T19:51:46.608Z,21.13
2018-12-31T19:54:12.597Z,21.63
2018-12-31T19:56:40.574Z,20.47
2018-12-31T19:59:06.582Z,20.73
2018-12-31T20:01:32.610Z,21.37
2018-12-31T20:03:58.621Z,21.60
2018-12-31T20:06:24.659Z,21.87
2018-12-31T20:08:50.678Z,21.27
2018-12-31T20:11:16.719Z,21.43
2018-12-31T20:13:42.719Z,21.43
2018-12-31T20:16:08.744Z,23.20
2018-12-31T20:18:34.747Z,22.60
2018-12-31T20:21:00.766Z,23.10
2018-12-31T20:23:26.761Z,23.77
2018-12-31T20:25:52.770Z,25.83
2018-12-31T20:28:18.800Z,25.23
2018-12-31T20:30:44.805Z,26.30
2018-12-31T20:33:10.835Z,24.90
2018-12-31T20:35:36.822Z,26.20
2018-12-31T20:38:02.858Z,25.23
2018-12-31T20:40:28.854Z,25.47
2018-12-31T20:42:54.864Z,24.40
2018-12-31T20:45:20.902Z,24.83
2018-12-31T20:47:48.838Z,23.77
2018-12-31T20:50:14.918Z,22.90
2018-12-31T20:52:40.994Z,22.97
2018-12-31T20:55:06.978Z,22.33
2018-12-31T20:57:33.010Z,23.23
2018-12-31T20:59:59.022Z,22.17
2018-12-31T21:02:25.058Z,25.00
2018-12-31T21:04:51.191Z,26.10
2018-12-31T21:07:17.235Z,23.60
2018-12-31T21:09:43.221Z,23.67
2018-12-31T21:12:09.257Z,22.03
2018-12-31T21:14:35.271Z,23.97
2018-12-31T21:17:01.295Z,21.80
2018-12-31T21:19:27.333Z,23.03
2018-12-31T21:21:53.336Z,21.00
2018-12-31T21:24:19.340Z,20.17
2018-12-31T21:26:45.384Z,19.03
2018-12-31T21:29:11.415Z,18.67
2018-12-31T21:31:37.403Z,20.17
2018-12-31T21:34:03.457Z,18.73
2018-12-31T21:36:31.419Z,18.37
2018-12-31T21:38:57.423Z,18.70
2018-12-31T21:41:23.467Z,19.83
2018-12-31T21:43:49.591Z,18.77
2018-12-31T21:46:15.582Z,17.93
2018-12-31T21:48:41.614Z,16.77
2018-12-31T21:51:07.662Z,13.60
2018-12-31T21:53:35.678Z,11.90
2018-12-31T21:56:01.751Z,12.03
2018-12-31T21:58:27.802Z,11.50
2018-12-31T22:00:53.843Z,12.03
2018-12-31T22:03:19.827Z,12.10
2018-12-31T22:05:45.829Z,11.47
2018-12-31T22:08:11.868Z,11.10
2018-12-31T22:10:37.894Z,11.07
2018-12-31T22:13:03.937Z,12.70
2018-12-31T22:15:30.040Z,13.73
2018-12-31T22:17:56.143Z,12.63
2018-12-31T22:20:22.157Z,13.17
2018-12-31T22:22:48.156Z,13.33
2018-12-31T22:25:16.123Z,14.80
2018-12-31T22:27:42.163Z,14.87
2018-12-31T22:30:08.162Z,15.23
2018-12-31T22:32:34.178Z,14.73
2018-12-31T22:35:00.186Z,16.93
2018-12-31T22:37:26.206Z,15.80
2018-12-31T22:39:52.211Z,14.93
2018-12-31T22:44:51.990Z,15.97
2018-12-31T22:47:18.022Z,15.63
2018-12-31T22:49:44.029Z,14.80
2018-12-31T22:52:10.039Z,14.83
2018-12-31T22:54:36.660Z,15.23
2018-12-31T22:57:04.068Z,14.23
2018-12-31T22:59:30.101Z,13.83
2018-12-31T23:01:56.112Z,14.77
2018-12-31T23:04:22.134Z,16.87
2018-12-31T23:10:01.466Z,31.67
2018-12-31T23:12:27.457Z,37.53
2018-12-31T23:17:47.573Z,41.20
2018-12-31T23:23:14.501Z,16.13
2018-12-31T23:25:40.525Z,18.00
2018-12-31T23:28:06.530Z,19.40
2018-12-31T23:30:32.595Z,19.60
2018-12-31T23:32:58.589Z,18.50
2018-12-31T23:35:26.511Z,17.50
2018-12-31T23:37:52.535Z,16.73
2018-12-31T23:40:18.513Z,16.77
2018-12-31T23:42:44.553Z,20.03
2018-12-31T23:45:30.506Z,17.93
2018-12-31T23:47:56.696Z,17.70
2018-12-31T23:50:22.717Z,19.00
2018-12-31T23:52:48.715Z,19.33
2018-12-31T23:55:14.735Z,19.67
2018-12-31T23:57:40.789Z,19.33
